Time;durP1;ratioP1;P1;durP2;ratioP2;P2;SDS_P1;SDS_P2;PMS_P1;PMS_P2;Temp;Humidity;BMP_temperature;BMP_pressure;BME280_temperature;BME280_humidity;BME280_pressure;Samples;Min_cycle;Max_cycle;Signal;HPM_P1;HPM_P2
2023/01/06 00:00:39;;;;;;;;;0.00;0.00;;;;;;;;5185048;28;9450;-70
2023/01/06 00:03:10;;;;;;;;;0.00;0.00;;;;;;;;5185898;28;9443;-69
2023/01/06 00:05:41;;;;;;;;;1.00;1.00;;;;;;;;5185930;28;9508;-69
2023/01/06 00:08:12;;;;;;;;;3.00;3.00;;;;;;;;5185522;28;9824;-70
2023/01/06 00:10:43;;;;;;;;;0.00;0.00;;;;;;;;5168364;28;11475;-71
2023/01/06 00:13:14;;;;;;;;;1.00;1.00;;;;;;;;5186286;28;10123;-73
2023/01/06 00:15:45;;;;;;;;;0.33;0.00;;;;;;;;5200744;28;11514;-72
2023/01/06 00:18:16;;;;;;;;;1.00;1.00;;;;;;;;5185394;28;11519;-71
2023/01/06 00:20:47;;;;;;;;;6.00;5.00;;;;;;;;5168491;28;8830;-70
2023/01/06 00:23:18;;;;;;;;;0.00;0.00;;;;;;;;5185194;28;10672;-70
2023/01/06 00:26:08;;;;;;;;;3.00;3.00;;;;;;;;5200707;28;10701;-70
2023/01/06 00:28:39;;;;;;;;;3.33;3.33;;;;;;;;5184267;28;9677;-72
2023/01/06 00:31:29;;;;;;;;;0.00;0.00;;;;;;;;5186025;28;10188;-71
2023/01/06 00:34:00;;;;;;;;;1.67;1.67;;;;;;;;5184546;28;9588;-73
2023/01/06 00:36:31;;;;;;;;;0.33;0.33;;;;;;;;5185430;28;10165;-73
2023/01/06 00:39:21;;;;;;;;;0.33;0.33;;;;;;;;5201552;28;8818;-72
2023/01/06 00:42:04;;;;;;;;;6.00;6.00;;;;;;;;5186939;28;9518;-72
2023/01/06 00:44:36;;;;;;;;;0.67;0.67;;;;;;;;5202084;28;11479;-72
2023/01/06 00:47:09;;;;;;;;;11.33;11.33;;;;;;;;5184387;28;9680;-72
2023/01/06 00:49:40;;;;;;;;;3.25;3.25;;;;;;;;5167810;28;9663;-71
2023/01/06 00:52:29;;;;;;;;;1.00;1.00;;;;;;;;5185408;28;9884;-71
2023/01/06 00:55:00;;;;;;;;;1.00;1.00;;;;;;;;5167596;28;10093;-72
2023/01/06 00:57:31;;;;;;;;;2.50;2.50;;;;;;;;5184558;28;9827;-71
2023/01/06 01:00:03;;;;;;;;;2.50;2.50;;;;;;;;5184701;28;9798;-72
2023/01/06 01:02:35;;;;;;;;;1.00;1.00;;;;;;;;5184027;28;9826;-72
2023/01/06 01:05:24;;;;;;;;;0.00;0.00;;;;;;;;5169956;28;9814;-72
2023/01/06 01:07:56;;;;;;;;;2.50;1.00;;;;;;;;5167422;28;10587;-71
2023/01/06 01:10:27;;;;;;;;;3.75;3.75;;;;;;;;5185115;28;10171;-71
2023/01/06 01:12:59;;;;;;;;;3.50;3.50;;;;;;;;5200141;28;10192;-70
2023/01/06 01:15:30;;;;;;;;;0.00;0.00;;;;;;;;5185061;28;10038;-71
2023/01/06 01:18:01;;;;;;;;;0.00;0.00;;;;;;;;5185007;28;10733;-71
2023/01/06 01:20:33;;;;;;;;;6.75;6.00;;;;;;;;5183336;28;9907;-71
2023/01/06 01:23:03;;;;;;;;;3.75;3.75;;;;;;;;5167546;28;8924;-71
2023/01/06 01:25:34;;;;;;;;;0.75;0.75;;;;;;;;5183383;28;10279;-70
2023/01/06 01:28:24;;;;;;;;;1.00;1.00;;;;;;;;5200244;28;8823;-71
2023/01/06 01:31:02;;;;;;;;;0.25;0.25;;;;;;;;5183440;28;10864;-70
2023/01/06 01:33:33;;;;;;;;;0.50;0.50;;;;;;;;5184667;28;11029;-70
2023/01/06 01:36:05;;;;;;;;;0.00;0.00;;;;;;;;5184784;28;10210;-68
2023/01/06 01:38:36;;;;;;;;;0.00;0.00;;;;;;;;5199582;28;9985;-72
2023/01/06 01:41:12;;;;;;;;;3.25;3.25;;;;;;;;5183103;28;10026;-71
2023/01/06 01:44:02;;;;;;;;;4.00;4.00;;;;;;;;5197278;28;10189;-71
2023/01/06 01:46:39;;;;;;;;;0.00;0.00;;;;;;;;5183201;28;10195;-69
2023/01/06 01:49:17;;;;;;;;;0.00;0.00;;;;;;;;5183698;28;10644;-70
2023/01/06 01:51:50;;;;;;;;;0.00;0.00;;;;;;;;5199736;28;10031;-70
2023/01/06 01:54:25;;;;;;;;;4.75;4.75;;;;;;;;5183374;28;10059;-69
2023/01/06 01:56:59;;;;;;;;;1.00;1.00;;;;;;;;5183004;28;10587;-72
2023/01/06 01:59:31;;;;;;;;;0.00;0.00;;;;;;;;5183758;28;10054;-72
2023/01/06 02:02:02;;;;;;;;;1.00;1.00;;;;;;;;5183098;28;9957;-70
2023/01/06 02:04:36;;;;;;;;;0.00;0.00;;;;;;;;5200144;28;10031;-71
2023/01/06 02:07:08;;;;;;;;;2.50;2.50;;;;;;;;5182762;28;10186;-70
2023/01/06 02:09:39;;;;;;;;;1.00;1.00;;;;;;;;5166790;28;10200;-70
2023/01/06 02:12:10;;;;;;;;;0.75;0.75;;;;;;;;5183163;28;10123;-71
2023/01/06 02:15:00;;;;;;;;;0.25;0.25;;;;;;;;5184926;28;8849;-70
2023/01/06 02:17:31;;;;;;;;;3.25;3.25;;;;;;;;5200207;28;10250;-70
2023/01/06 02:20:22;;;;;;;;;7.50;7.50;;;;;;;;5187705;28;10649;-69
2023/01/06 02:23:09;;;;;;;;;8.50;6.50;;;;;;;;5187555;28;10584;-70
2023/01/06 02:25:52;;;;;;;;;9.25;8.25;;;;;;;;5187031;28;10472;-72
2023/01/06 02:28:28;;;;;;;;;11.75;11.75;;;;;;;;5202699;28;10727;-72
2023/01/06 02:31:09;;;;;;;;;5.50;5.50;;;;;;;;5186478;28;11016;-73
2023/01/06 02:33:44;;;;;;;;;3.50;3.50;;;;;;;;5186729;28;10830;-72
2023/01/06 02:36:30;;;;;;;;;5.50;5.50;;;;;;;;5186276;28;10731;-72
2023/01/06 02:39:18;;;;;;;;;7.50;7.50;;;;;;;;5186418;28;11709;-72
2023/01/06 02:42:06;;;;;;;;;3.75;3.75;;;;;;;;5187768;28;11107;-74
2023/01/06 02:44:45;;;;;;;;;12.00;9.00;;;;;;;;5169922;28;10720;-74
2023/01/06 02:47:24;;;;;;;;;3.25;3.25;;;;;;;;5186749;28;11010;-73
2023/01/06 02:50:10;;;;;;;;;5.00;4.00;;;;;;;;5202934;28;10927;-74
2023/01/06 02:52:44;;;;;;;;;2.00;2.00;;;;;;;;5186575;28;10871;-72
2023/01/06 02:55:28;;;;;;;;;10.75;9.50;;;;;;;;5185680;28;10798;-73
2023/01/06 02:58:03;;;;;;;;;12.25;12.25;;;;;;;;5186341;28;11024;-73
2023/01/06 03:00:39;;;;;;;;;4.00;4.00;;;;;;;;5186604;28;11172;-71
2023/01/06 03:03:17;;;;;;;;;3.25;3.25;;;;;;;;5185896;28;11026;-71
2023/01/06 03:05:51;;;;;;;;;0.25;0.00;;;;;;;;5202234;28;10867;-71
2023/01/06 03:08:25;;;;;;;;;3.00;3.00;;;;;;;;5202309;28;10780;-71
2023/01/06 03:10:59;;;;;;;;;1.00;1.00;;;;;;;;5202008;28;10854;-71
2023/01/06 03:13:52;;;;;;;;;4.25;3.25;;;;;;;;5202089;28;11015;-71
2023/01/06 03:16:23;;;;;;;;;1.00;1.00;;;;;;;;5202322;28;10882;-71
2023/01/06 03:18:55;;;;;;;;;0.00;0.00;;;;;;;;5186913;28;11685;-71
2023/01/06 03:21:31;;;;;;;;;0.25;0.25;;;;;;;;5201514;28;10980;-71
2023/01/06 03:24:08;;;;;;;;;5.25;3.00;;;;;;;;5185375;28;10996;-71
2023/01/06 03:26:40;;;;;;;;;1.00;1.00;;;;;;;;5169969;28;10901;-73
2023/01/06 03:29:14;;;;;;;;;0.00;0.00;;;;;;;;5167974;28;11546;-71
2023/01/06 03:31:46;;;;;;;;;0.25;0.25;;;;;;;;5185456;28;10707;-70
2023/01/06 03:34:20;;;;;;;;;1.50;1.50;;;;;;;;5201819;28;10801;-71
2023/01/06 03:37:06;;;;;;;;;0.00;0.00;;;;;;;;5185021;28;10850;-70
2023/01/06 03:39:42;;;;;;;;;0.00;0.00;;;;;;;;5186782;28;10572;-74
2023/01/06 03:49:39;;;;;;;;;2.00;2.00;;;;;;;;5201977;28;10647;-70
2023/01/06 04:00:59;;;;;;;;;0.75;0.75;;;;;;;;5185894;28;10834;-72
2023/01/06 04:03:31;;;;;;;;;3.25;3.25;;;;;;;;5184648;28;10774;-74
2023/01/06 04:06:03;;;;;;;;;2.00;2.00;;;;;;;;5184882;28;11115;-76
2023/01/06 04:08:34;;;;;;;;;0.25;0.25;;;;;;;;5184445;28;11196;-73
2023/01/06 04:11:06;;;;;;;;;0.75;0.75;;;;;;;;5168756;28;10924;-74
2023/01/06 04:13:37;;;;;;;;;3.00;3.00;;;;;;;;5184224;28;11255;-73
2023/01/06 04:16:08;;;;;;;;;4.00;3.25;;;;;;;;5168848;28;11096;-75
2023/01/06 04:18:39;;;;;;;;;3.00;3.00;;;;;;;;5168720;28;11073;-75
2023/01/06 04:21:11;;;;;;;;;6.00;2.50;;;;;;;;5167615;28;11208;-77
2023/01/06 04:23:42;;;;;;;;;3.50;3.50;;;;;;;;5168017;28;11111;-78
2023/01/06 04:26:32;;;;;;;;;0.50;0.50;;;;;;;;5171139;28;11010;-75
2023/01/06 04:29:04;;;;;;;;;1.25;1.25;;;;;;;;5183833;28;11022;-75
2023/01/06 04:31:36;;;;;;;;;0.50;0.50;;;;;;;;5168004;28;11621;-80
2023/01/06 04:34:07;;;;;;;;;0.00;0.00;;;;;;;;5167830;28;10961;-76
2023/01/06 04:36:38;;;;;;;;;1.00;1.00;;;;;;;;5167551;28;11186;-73
2023/01/06 04:39:10;;;;;;;;;1.00;1.00;;;;;;;;5168147;28;11720;-73
2023/01/06 04:41:42;;;;;;;;;4.25;4.25;;;;;;;;5167354;28;11177;-73
2023/01/06 04:44:12;;;;;;;;;3.00;3.00;;;;;;;;5185022;28;11190;-73
2023/01/06 04:51:10;;;;;;;;;0.00;0.00;;;;;;;;5184975;28;10894;-79
2023/01/06 04:58:11;;;;;;;;;1.00;1.00;;;;;;;;5184868;28;11078;-73
2023/01/06 05:00:42;;;;;;;;;0.75;0.75;;;;;;;;5183746;28;11113;-76
2023/01/06 05:03:13;;;;;;;;;3.25;1.00;;;;;;;;5184201;28;9586;-71
2023/01/06 05:05:44;;;;;;;;;3.00;3.00;;;;;;;;5184091;28;8925;-75
2023/01/06 05:08:15;;;;;;;;;1.50;1.50;;;;;;;;5183731;28;11474;-73
2023/01/06 05:10:46;;;;;;;;;5.50;5.50;;;;;;;;5169745;28;11482;-77
2023/01/06 05:13:17;;;;;;;;;6.00;6.00;;;;;;;;5170310;28;11445;-78
2023/01/06 05:24:47;;;;;;;;;5.50;5.50;;;;;;;;5184570;28;11143;-78
2023/01/06 05:27:18;;;;;;;;;7.00;7.00;;;;;;;;5200310;28;11447;-77
2023/01/06 05:30:08;;;;;;;;;5.75;5.75;;;;;;;;5200260;28;12186;-72
2023/01/06 05:32:39;;;;;;;;;23.25;18.50;;;;;;;;5184850;28;11450;-76
2023/01/06 05:35:10;;;;;;;;;6.25;6.00;;;;;;;;5167164;28;11559;-75
2023/01/06 05:37:41;;;;;;;;;15.25;14.25;;;;;;;;5183580;28;11501;-75
2023/01/06 05:40:12;;;;;;;;;15.25;15.25;;;;;;;;5183787;28;12213;-77
2023/01/06 05:42:43;;;;;;;;;0.25;0.00;;;;;;;;5185061;28;8787;-74
2023/01/06 05:45:14;;;;;;;;;5.75;5.75;;;;;;;;5183794;28;11532;-80
2023/01/06 05:47:45;;;;;;;;;5.50;5.50;;;;;;;;5200277;28;11557;-76
2023/01/06 05:50:34;;;;;;;;;0.00;0.00;;;;;;;;5204113;28;11440;-75
2023/01/06 05:53:05;;;;;;;;;8.75;8.75;;;;;;;;5182421;28;11494;-77
2023/01/06 05:55:37;;;;;;;;;8.00;8.00;;;;;;;;5199368;28;8783;-77
2023/01/06 05:58:08;;;;;;;;;3.75;3.75;;;;;;;;5198109;28;11172;-80
2023/01/06 06:00:40;;;;;;;;;1.00;1.00;;;;;;;;5188152;28;11448;-81
2023/01/06 06:03:30;;;;;;;;;7.25;7.25;;;;;;;;5177677;28;11421;-76
2023/01/06 06:06:03;;;;;;;;;6.25;6.25;;;;;;;;5187474;28;11554;-77
2023/01/06 06:12:57;;;;;;;;;9.75;9.75;;;;;;;;5187403;28;11791;-75
2023/01/06 06:15:47;;;;;;;;;11.75;11.75;;;;;;;;5173555;28;11516;-73
2023/01/06 06:18:41;;;;;;;;;11.50;11.50;;;;;;;;5200834;28;11539;-74
2023/01/06 06:21:13;;;;;;;;;18.25;15.25;;;;;;;;5188112;28;11501;-75
2023/01/06 06:23:44;;;;;;;;;9.50;9.50;;;;;;;;5186468;28;11473;-74
2023/01/06 06:26:15;;;;;;;;;22.00;21.25;;;;;;;;5187809;28;11446;-75
2023/01/06 06:28:46;;;;;;;;;4.00;4.00;;;;;;;;5203503;28;11503;-74
2023/01/06 06:31:22;;;;;;;;;11.00;11.00;;;;;;;;5202724;28;8823;-75
2023/01/06 06:33:54;;;;;;;;;9.00;9.00;;;;;;;;5186140;28;11464;-74
2023/01/06 06:36:25;;;;;;;;;5.00;5.00;;;;;;;;5202687;28;11578;-75
2023/01/06 06:38:56;;;;;;;;;17.00;16.75;;;;;;;;5187634;28;11659;-76
2023/01/06 06:41:28;;;;;;;;;17.25;11.25;;;;;;;;5186274;28;12041;-74
2023/01/06 06:44:17;;;;;;;;;8.75;8.75;;;;;;;;5202620;28;11490;-75
2023/01/06 06:47:07;;;;;;;;;14.75;14.75;;;;;;;;5172546;28;12137;-74
2023/01/06 06:49:37;;;;;;;;;10.25;10.25;;;;;;;;5169613;28;12253;-74
2023/01/06 06:52:08;;;;;;;;;9.00;7.00;;;;;;;;5186432;28;11535;-74
2023/01/06 06:54:58;;;;;;;;;0.00;0.00;;;;;;;;5186228;28;11511;-75
2023/01/06 06:57:28;;;;;;;;;0.75;0.75;;;;;;;;5185884;28;10704;-74
2023/01/06 07:00:00;;;;;;;;;12.00;12.00;;;;;;;;5185994;28;8809;-74
2023/01/06 07:02:30;;;;;;;;;9.50;9.50;;;;;;;;5186798;28;8888;-73
2023/01/06 07:05:20;;;;;;;;;7.50;7.50;;;;;;;;5187401;28;12162;-74
2023/01/06 07:07:51;;;;;;;;;6.00;5.00;;;;;;;;5196004;28;11434;-73
2023/01/06 07:10:22;;;;;;;;;3.50;3.50;;;;;;;;5207003;28;8796;-74
2023/01/06 07:12:53;;;;;;;;;1.00;1.00;;;;;;;;5191568;28;11095;-75
2023/01/06 07:15:24;;;;;;;;;0.25;0.25;;;;;;;;5207479;28;10859;-75
2023/01/06 07:17:59;;;;;;;;;14.00;14.00;;;;;;;;5190910;28;10765;-74
2023/01/06 07:20:31;;;;;;;;;4.00;4.00;;;;;;;;5207862;28;8839;-76
2023/01/06 07:23:02;;;;;;;;;1.00;1.00;;;;;;;;5189171;28;10979;-71
2023/01/06 07:25:33;;;;;;;;;0.00;0.00;;;;;;;;5207301;28;10997;-72
2023/01/06 07:28:06;;;;;;;;;1.50;1.50;;;;;;;;5206871;28;11034;-73
2023/01/06 07:30:55;;;;;;;;;4.25;4.25;;;;;;;;5206042;28;11040;-70
2023/01/06 07:33:28;;;;;;;;;3.00;3.00;;;;;;;;5205707;28;11003;-69
2023/01/06 07:40:22;;;;;;;;;7.50;7.50;;;;;;;;5206544;28;11531;-72
2023/01/06 07:42:53;;;;;;;;;6.00;6.00;;;;;;;;5205504;28;11518;-71
2023/01/06 07:49:47;;;;;;;;;23.75;22.75;;;;;;;;5206533;28;8740;-70
2023/01/06 07:52:18;;;;;;;;;50.50;46.00;;;;;;;;5188838;28;11496;-73
2023/01/06 07:54:50;;;;;;;;;20.25;17.25;;;;;;;;5205839;28;11012;-70
2023/01/06 07:57:21;;;;;;;;;16.50;15.50;;;;;;;;5205213;28;11434;-72
2023/01/06 07:59:52;;;;;;;;;15.25;14.00;;;;;;;;5204831;28;11540;-71
2023/01/06 08:02:23;;;;;;;;;11.75;11.50;;;;;;;;5188874;28;11496;-75
2023/01/06 08:04:54;;;;;;;;;18.75;18.75;;;;;;;;5204855;28;8807;-71
2023/01/06 08:07:25;;;;;;;;;5.00;5.00;;;;;;;;5188615;28;8967;-71
2023/01/06 08:10:14;;;;;;;;;0.25;0.25;;;;;;;;5205992;28;8768;-72
2023/01/06 08:12:45;;;;;;;;;4.50;4.00;;;;;;;;5188364;28;10761;-75
2023/01/06 08:15:35;;;;;;;;;6.75;5.50;;;;;;;;5204668;28;10923;-73
2023/01/06 08:18:06;;;;;;;;;3.75;3.50;;;;;;;;5206366;28;11730;-72
2023/01/06 08:20:37;;;;;;;;;9.00;8.75;;;;;;;;5188470;28;10822;-73
2023/01/06 08:23:08;;;;;;;;;1.00;1.00;;;;;;;;5205713;28;11027;-73
2023/01/06 08:25:39;;;;;;;;;0.00;0.00;;;;;;;;5205480;28;11472;-75
2023/01/06 08:28:10;;;;;;;;;6.00;4.50;;;;;;;;5204442;28;11543;-72
2023/01/06 08:30:41;;;;;;;;;7.00;7.00;;;;;;;;5204709;28;11078;-73
2023/01/06 08:33:13;;;;;;;;;7.75;7.75;;;;;;;;5171765;28;11039;-70
2023/01/06 08:35:46;;;;;;;;;7.00;7.00;;;;;;;;5204836;28;12161;-70
2023/01/06 08:38:17;;;;;;;;;9.75;8.50;;;;;;;;5206665;28;10988;-74
2023/01/06 08:40:50;;;;;;;;;4.00;4.00;;;;;;;;5189433;28;10863;-74
2023/01/06 08:43:21;;;;;;;;;11.75;9.50;;;;;;;;5205739;28;9570;-76
2023/01/06 08:45:53;;;;;;;;;4.00;4.00;;;;;;;;5173215;28;10637;-73
2023/01/06 08:48:42;;;;;;;;;3.75;3.75;;;;;;;;5205182;28;10481;-75
2023/01/06 08:51:19;;;;;;;;;6.75;5.75;;;;;;;;5187965;28;10573;-75
2023/01/06 08:53:51;;;;;;;;;2.00;2.00;;;;;;;;5188643;28;10558;-73
2023/01/06 08:56:24;;;;;;;;;6.25;6.25;;;;;;;;5205293;28;10310;-78
2023/01/06 08:58:57;;;;;;;;;7.50;4.00;;;;;;;;5204246;28;10773;-78
2023/01/06 09:01:46;;;;;;;;;4.00;4.00;;;;;;;;5204710;28;10570;-77
2023/01/06 09:04:17;;;;;;;;;12.00;12.00;;;;;;;;5171831;28;10569;-74
2023/01/06 09:06:48;;;;;;;;;8.00;8.00;;;;;;;;5187537;28;10779;-75
2023/01/06 09:09:19;;;;;;;;;6.25;6.25;;;;;;;;5205093;28;8866;-74
2023/01/06 09:11:50;;;;;;;;;9.75;9.50;;;;;;;;5171694;28;10779;-74
2023/01/06 09:14:21;;;;;;;;;2.00;1.00;;;;;;;;5204076;28;8792;-73
2023/01/06 09:17:10;;;;;;;;;0.50;0.50;;;;;;;;5190298;28;8812;-75
2023/01/06 09:19:41;;;;;;;;;4.00;4.00;;;;;;;;5205490;28;10556;-73
2023/01/06 09:22:12;;;;;;;;;6.25;6.25;;;;;;;;5203698;28;12247;-77
2023/01/06 09:24:43;;;;;;;;;7.00;7.00;;;;;;;;5203862;28;8815;-76
2023/01/06 09:27:33;;;;;;;;;3.00;3.00;;;;;;;;5210029;28;8849;-76
2023/01/06 09:30:04;;;;;;;;;1.50;1.50;;;;;;;;5210895;28;11189;-73
2023/01/06 09:32:35;;;;;;;;;0.25;0.25;;;;;;;;5195505;28;8784;-74
2023/01/06 09:35:25;;;;;;;;;1.25;1.25;;;;;;;;5196837;28;10492;-74
2023/01/06 09:38:14;;;;;;;;;0.00;0.00;;;;;;;;5196851;28;10615;-77
2023/01/06 09:41:04;;;;;;;;;1.50;0.50;;;;;;;;5211102;28;10919;-74
2023/01/06 09:44:13;;;;;;;;;1.00;1.00;;;;;;;;5211460;28;10801;-75
2023/01/06 09:46:47;;;;;;;;;10.00;10.00;;;;;;;;5129480;28;10608;-78
2023/01/06 09:49:18;;;;;;;;;3.00;3.00;;;;;;;;5097072;28;10825;-74
2023/01/06 09:51:49;;;;;;;;;2.50;1.75;;;;;;;;5167723;28;10586;-77
2023/01/06 09:58:52;;;;;;;;;6.00;5.50;;;;;;;;5211564;28;10416;-75
2023/01/06 10:01:27;;;;;;;;;0.00;0.00;;;;;;;;5177355;28;11024;-75
2023/01/06 10:03:59;;;;;;;;;5.00;5.00;;;;;;;;5211123;28;10551;-75
2023/01/06 10:11:01;;;;;;;;;6.00;6.00;;;;;;;;5211358;28;10713;-74
2023/01/06 10:13:52;;;;;;;;;14.00;14.00;;;;;;;;5194544;28;10967;-73
2023/01/06 10:16:41;;;;;;;;;8.00;7.50;;;;;;;;5196211;28;11455;-72
2023/01/06 10:19:49;;;;;;;;;14.75;14.00;;;;;;;;5212437;28;10704;-76
2023/01/06 10:22:23;;;;;;;;;1.00;1.00;;;;;;;;5211805;28;12222;-76
2023/01/06 10:25:13;;;;;;;;;12.75;12.75;;;;;;;;5218888;28;11944;-79
2023/01/06 10:27:50;;;;;;;;;5.00;4.75;;;;;;;;5198109;28;11440;-76
2023/01/06 10:30:26;;;;;;;;;12.25;10.50;;;;;;;;5212996;28;8862;-76
2023/01/06 10:33:23;;;;;;;;;13.75;10.75;;;;;;;;5214486;28;11808;-76
2023/01/06 10:35:54;;;;;;;;;10.75;9.75;;;;;;;;5194490;28;11024;-76
2023/01/06 10:38:39;;;;;;;;;9.00;9.00;;;;;;;;5207094;28;11005;-77
2023/01/06 10:41:10;;;;;;;;;6.75;6.75;;;;;;;;5176480;28;10652;-74
2023/01/06 10:43:59;;;;;;;;;7.00;7.00;;;;;;;;5207273;28;10707;-75
2023/01/06 10:46:33;;;;;;;;;4.50;4.50;;;;;;;;5190418;28;10928;-74
2023/01/06 10:49:23;;;;;;;;;3.25;3.25;;;;;;;;5207374;28;11404;-74
2023/01/06 10:51:57;;;;;;;;;13.25;13.25;;;;;;;;5190526;28;10719;-74
2023/01/06 10:54:32;;;;;;;;;22.00;22.00;;;;;;;;5208873;28;11542;-80
2023/01/06 10:57:08;;;;;;;;;14.75;14.00;;;;;;;;5208109;28;11476;-74
2023/01/06 10:59:58;;;;;;;;;12.75;12.75;;;;;;;;5190662;28;11591;-74
2023/01/06 11:11:14;;;;;;;;;0.25;0.25;;;;;;;;5207907;28;11692;-72
2023/01/06 11:13:46;;;;;;;;;11.25;9.75;;;;;;;;5206813;28;11563;-72
2023/01/06 11:16:25;;;;;;;;;6.00;6.00;;;;;;;;5207983;28;11121;-73
2023/01/06 11:18:57;;;;;;;;;12.25;12.25;;;;;;;;5207740;28;11405;-73
2023/01/06 11:21:38;;;;;;;;;6.25;6.25;;;;;;;;5173446;28;11559;-74
2023/01/06 11:24:28;;;;;;;;;15.50;14.00;;;;;;;;5206041;28;11436;-75
2023/01/06 11:27:00;;;;;;;;;8.50;6.25;;;;;;;;5189082;28;11618;-72
2023/01/06 11:29:33;;;;;;;;;0.25;0.25;;;;;;;;5189100;28;11452;-69
2023/01/06 11:32:11;;;;;;;;;2.75;2.75;;;;;;;;5205559;28;10840;-73
2023/01/06 11:34:50;;;;;;;;;1.00;1.00;;;;;;;;5174004;28;10955;-77
2023/01/06 11:37:33;;;;;;;;;23.50;19.75;;;;;;;;5173006;28;11078;-73
2023/01/06 11:40:14;;;;;;;;;5.25;5.00;;;;;;;;5206113;28;11497;-72
2023/01/06 11:42:52;;;;;;;;;7.25;7.25;;;;;;;;5173153;28;10918;-69
2023/01/06 11:45:30;;;;;;;;;7.25;7.25;;;;;;;;5189626;28;11189;-76
2023/01/06 11:48:21;;;;;;;;;6.00;6.00;;;;;;;;5206378;28;11611;-77
2023/01/06 11:50:57;;;;;;;;;11.25;10.25;;;;;;;;5176559;28;11302;-77
2023/01/06 11:53:28;;;;;;;;;15.50;15.50;;;;;;;;5172390;28;11429;-75
2023/01/06 11:56:16;;;;;;;;;12.75;12.75;;;;;;;;5205712;28;11452;-73
2023/01/06 11:59:07;;;;;;;;;1.00;1.00;;;;;;;;5172646;28;11459;-77
2023/01/06 12:01:42;;;;;;;;;7.25;7.25;;;;;;;;5206337;28;11109;-76
2023/01/06 12:04:17;;;;;;;;;18.75;18.75;;;;;;;;5206839;28;12079;-77
2023/01/06 12:06:51;;;;;;;;;4.50;4.00;;;;;;;;5172908;28;11464;-74
2023/01/06 12:09:25;;;;;;;;;4.00;4.00;;;;;;;;5205542;28;12051;-77
2023/01/06 12:12:01;;;;;;;;;13.50;13.25;;;;;;;;5188923;28;12166;-74
2023/01/06 12:14:36;;;;;;;;;3.50;3.50;;;;;;;;5189371;28;12127;-75
2023/01/06 12:17:27;;;;;;;;;8.25;6.75;;;;;;;;5172852;28;11427;-75
2023/01/06 12:20:04;;;;;;;;;4.25;3.50;;;;;;;;5192504;28;11432;-75
2023/01/06 12:22:38;;;;;;;;;8.00;8.00;;;;;;;;5210425;28;12104;-74
2023/01/06 12:25:24;;;;;;;;;5.00;4.50;;;;;;;;5215494;28;11535;-77
2023/01/06 12:28:14;;;;;;;;;0.00;0.00;;;;;;;;5181647;28;12116;-81
2023/01/06 12:30:53;;;;;;;;;5.50;5.50;;;;;;;;5193214;28;11442;-79
2023/01/06 12:33:28;;;;;;;;;15.50;15.50;;;;;;;;5206475;28;11405;-72
2023/01/06 12:36:02;;;;;;;;;12.00;11.00;;;;;;;;5172442;28;11546;-72
2023/01/06 12:38:49;;;;;;;;;6.00;6.00;;;;;;;;5205485;28;11539;-75
2023/01/06 12:41:38;;;;;;;;;3.50;3.50;;;;;;;;5204761;28;11442;-73
2023/01/06 12:44:22;;;;;;;;;11.50;11.50;;;;;;;;5188928;28;11471;-74
2023/01/06 12:47:18;;;;;;;;;8.50;7.75;;;;;;;;5191197;28;11465;-75
2023/01/06 12:49:55;;;;;;;;;6.00;6.00;;;;;;;;5188857;28;11408;-72
2023/01/06 12:57:08;;;;;;;;;3.00;3.00;;;;;;;;5205763;28;11399;-78
2023/01/06 13:04:05;;;;;;;;;5.25;5.25;;;;;;;;5205736;28;11386;-81
2023/01/06 13:06:55;;;;;;;;;4.75;4.75;;;;;;;;5171768;28;11492;-77
2023/01/06 13:09:25;;;;;;;;;7.00;7.00;;;;;;;;5189117;28;11413;-80
2023/01/06 13:16:37;;;;;;;;;18.25;14.75;;;;;;;;5205291;28;9415;-76
2023/01/06 13:19:17;;;;;;;;;4.00;4.00;;;;;;;;5204867;28;11465;-78
2023/01/06 13:21:51;;;;;;;;;12.75;12.75;;;;;;;;5172678;28;11473;-83
2023/01/06 13:24:44;;;;;;;;;1.50;1.50;;;;;;;;5205153;28;11523;-76
2023/01/06 13:27:22;;;;;;;;;25.25;24.25;;;;;;;;5171813;28;11426;-77
2023/01/06 13:30:08;;;;;;;;;0.50;0.50;;;;;;;;5203916;28;11559;-83
2023/01/06 13:32:58;;;;;;;;;8.50;8.50;;;;;;;;5187823;28;11412;-79
2023/01/06 13:35:29;;;;;;;;;2.50;1.50;;;;;;;;5205490;28;11604;-77
2023/01/06 13:42:31;;;;;;;;;1.00;1.00;;;;;;;;5213025;28;8777;-78
2023/01/06 13:49:25;;;;;;;;;0.25;0.25;;;;;;;;5206449;28;11457;-78
2023/01/06 13:51:56;;;;;;;;;8.50;8.50;;;;;;;;5187913;28;11460;-76
2023/01/06 13:54:48;;;;;;;;;8.00;8.00;;;;;;;;5203807;28;11464;-75
2023/01/06 13:57:18;;;;;;;;;4.00;3.75;;;;;;;;5173754;28;11606;-79
2023/01/06 14:00:15;;;;;;;;;14.00;10.25;;;;;;;;5190543;28;12046;-77
2023/01/06 14:02:50;;;;;;;;;6.50;6.00;;;;;;;;5171657;28;11419;-74
2023/01/06 14:05:21;;;;;;;;;8.75;6.00;;;;;;;;5170928;28;11419;-82
2023/01/06 14:07:52;;;;;;;;;0.25;0.25;;;;;;;;5203221;28;11455;-79
2023/01/06 14:10:31;;;;;;;;;9.00;9.00;;;;;;;;5170709;28;8807;-76
2023/01/06 14:13:06;;;;;;;;;0.75;0.75;;;;;;;;5205454;28;8776;-74
2023/01/06 14:15:54;;;;;;;;;9.00;9.00;;;;;;;;5190934;28;11466;-77
2023/01/06 14:18:43;;;;;;;;;2.00;2.00;;;;;;;;5207499;28;11412;-78
2023/01/06 14:29:38;;;;;;;;;4.75;4.75;;;;;;;;5191409;28;11419;-83
2023/01/06 14:36:34;;;;;;;;;4.50;4.50;;;;;;;;5222973;28;12259;-77
2023/01/06 14:39:07;;;;;;;;;7.25;6.75;;;;;;;;5212150;28;11481;-78
2023/01/06 14:41:42;;;;;;;;;6.75;6.75;;;;;;;;5210133;28;11504;-77
2023/01/06 14:44:18;;;;;;;;;9.25;9.25;;;;;;;;5208344;28;11571;-75
2023/01/06 14:46:55;;;;;;;;;7.00;7.00;;;;;;;;5207380;28;11510;-78
2023/01/06 14:49:30;;;;;;;;;11.75;11.75;;;;;;;;5190514;28;11471;-76
2023/01/06 14:52:04;;;;;;;;;15.50;13.75;;;;;;;;5175076;28;11505;-76
2023/01/06 14:54:38;;;;;;;;;3.50;3.50;;;;;;;;5192024;28;11522;-76
2023/01/06 14:57:25;;;;;;;;;0.50;0.50;;;;;;;;5193162;28;12115;-78
2023/01/06 15:00:15;;;;;;;;;4.50;4.50;;;;;;;;5195120;28;11417;-76
2023/01/06 15:07:13;;;;;;;;;0.00;0.00;;;;;;;;5207449;28;11520;-77
2023/01/06 15:09:46;;;;;;;;;12.50;12.50;;;;;;;;5207241;28;11445;-78
2023/01/06 15:12:29;;;;;;;;;13.00;7.50;;;;;;;;5190271;28;11497;-79
2023/01/06 15:15:22;;;;;;;;;6.50;6.25;;;;;;;;5190503;28;11638;-78
2023/01/06 15:17:54;;;;;;;;;1.00;1.00;;;;;;;;5207580;28;11478;-77
2023/01/06 15:20:27;;;;;;;;;0.00;0.00;;;;;;;;5205872;28;11447;-78
2023/01/06 15:22:59;;;;;;;;;0.00;0.00;;;;;;;;5207853;28;11454;-74
2023/01/06 15:25:30;;;;;;;;;0.00;0.00;;;;;;;;5209019;28;11618;-75
2023/01/06 15:28:02;;;;;;;;;4.00;4.00;;;;;;;;5189648;28;11394;-77
2023/01/06 15:30:35;;;;;;;;;1.00;1.00;;;;;;;;5207669;28;11500;-81
2023/01/06 15:33:09;;;;;;;;;11.50;6.75;;;;;;;;5205992;28;11521;-75
2023/01/06 15:35:40;;;;;;;;;6.00;6.00;;;;;;;;5205507;28;11531;-77
2023/01/06 15:38:30;;;;;;;;;6.50;6.00;;;;;;;;5189542;28;11394;-77
2023/01/06 15:41:03;;;;;;;;;15.25;15.25;;;;;;;;5190594;28;11512;-78
2023/01/06 15:43:40;;;;;;;;;7.00;6.00;;;;;;;;5206021;28;11461;-78
2023/01/06 15:46:11;;;;;;;;;10.00;9.50;;;;;;;;5206916;28;11395;-80
2023/01/06 15:48:47;;;;;;;;;9.00;9.00;;;;;;;;5206831;28;11536;-81
2023/01/06 15:55:48;;;;;;;;;7.25;7.25;;;;;;;;5206905;28;11464;-81
2023/01/06 16:02:45;;;;;;;;;22.75;20.50;;;;;;;;5207575;28;11374;-76
2023/01/06 16:05:35;;;;;;;;;6.50;6.50;;;;;;;;5187669;28;11501;-75
2023/01/06 16:08:14;;;;;;;;;11.50;11.00;;;;;;;;5185824;28;11395;-76
2023/01/06 16:15:27;;;;;;;;;7.25;7.25;;;;;;;;5185767;28;11402;-78
2023/01/06 16:17:58;;;;;;;;;5.50;5.50;;;;;;;;5168499;28;11512;-78
2023/01/06 16:20:47;;;;;;;;;0.25;0.25;;;;;;;;5185045;28;11439;-76
2023/01/06 16:23:29;;;;;;;;;3.50;3.50;;;;;;;;5152102;28;12262;-77
2023/01/06 16:26:13;;;;;;;;;4.00;4.00;;;;;;;;5152941;28;8773;-77
2023/01/06 16:37:17;;;;;;;;;4.00;4.00;;;;;;;;5184986;28;11536;-77
2023/01/06 16:39:56;;;;;;;;;9.50;9.50;;;;;;;;5184061;28;11418;-77
2023/01/06 16:42:41;;;;;;;;;3.50;3.50;;;;;;;;5168146;28;11442;-78
2023/01/06 16:45:18;;;;;;;;;7.00;7.00;;;;;;;;5188472;28;12235;-75
2023/01/06 16:47:49;;;;;;;;;6.00;6.00;;;;;;;;5188345;28;12103;-75
2023/01/06 16:50:29;;;;;;;;;5.50;5.50;;;;;;;;5171873;28;11434;-78
2023/01/06 16:53:00;;;;;;;;;2.50;2.50;;;;;;;;5172704;28;11355;-78
2023/01/06 16:55:31;;;;;;;;;6.00;4.50;;;;;;;;5186928;28;11413;-76
2023/01/06 16:58:16;;;;;;;;;9.50;9.50;;;;;;;;5206232;28;8789;-75
2023/01/06 17:00:53;;;;;;;;;9.00;7.50;;;;;;;;5222452;28;11433;-77
2023/01/06 17:03:43;;;;;;;;;7.00;6.50;;;;;;;;5210304;28;11461;-77
2023/01/06 17:06:16;;;;;;;;;10.25;10.25;;;;;;;;5203407;28;11418;-76
2023/01/06 17:08:50;;;;;;;;;0.00;0.00;;;;;;;;5214920;28;11501;-76
2023/01/06 17:11:25;;;;;;;;;8.50;8.50;;;;;;;;5210052;28;11406;-75
2023/01/06 17:13:58;;;;;;;;;7.00;7.00;;;;;;;;5200962;28;11602;-76
2023/01/06 17:16:48;;;;;;;;;8.25;8.00;;;;;;;;5213342;28;11466;-75
2023/01/06 17:19:25;;;;;;;;;19.50;19.25;;;;;;;;5205322;28;11418;-74
2023/01/06 17:22:15;;;;;;;;;0.00;0.00;;;;;;;;5171326;28;11495;-77
2023/01/06 17:24:48;;;;;;;;;3.00;3.00;;;;;;;;5183425;28;11395;-79
2023/01/06 17:27:25;;;;;;;;;1.00;1.00;;;;;;;;5167432;28;11554;-79
2023/01/06 17:30:00;;;;;;;;;0.25;0.25;;;;;;;;5204348;28;11514;-75
2023/01/06 17:32:50;;;;;;;;;5.00;4.00;;;;;;;;5187265;28;12221;-75
2023/01/06 17:35:27;;;;;;;;;9.00;9.00;;;;;;;;5187144;28;11566;-75
2023/01/06 17:38:23;;;;;;;;;6.00;6.00;;;;;;;;5204699;28;11599;-74
2023/01/06 17:40:56;;;;;;;;;9.25;7.50;;;;;;;;5187400;28;11536;-77
2023/01/06 17:43:32;;;;;;;;;5.00;5.00;;;;;;;;5186650;28;11580;-74